Jamestown, LA (71045)

5:50 AM CDT on September 30, 2014 (GMT -0500)
WOODHAVEN | Change Station
CLOSE
Current Station
Personal Weather Station
Location: Minden, LA
Elevation: 285 ft
Nearby Weather Stations

Elev 285 ft 32.65 °N, 93.29 °W | Updated 3 minutes ago

Overcast
Overcast
65.8 °F
Feels Like 65.8 °F
N
1.7
Wind Variable Wind from ESE

Today
High -- | Low -- °F
--% Chance of Precip.
Yesterday
High -- | Low -- °F
Precip. -- in
7:06 AM 6:58 PM
Waxing Crescent, 35% visible
Pressure 29.91 in
Visibility 10.0 miles
Clouds Scattered Clouds 7500 ft
Overcast 8500 ft
Dew Point 60 °F
Humidity 83%
Rainfall -9999.00 in
Snow Depth Not available.
UV 0 out of 12
Pollen 8.80 out of 12
Air Quality Not available.
Flu Activity Not available.
METAR KMNE 301035Z AUTO 00000KT 10SM SCT075 OVC085 23/17 A2991 RMK AO2

More Conditions Fewer Conditions

Pressure 29.91 in
Visibility 10.0 miles
Clouds Scattered Clouds 7500 ft
Overcast 8500 ft
Dew Point 60 °F
Humidity 83%
Rainfall -9999.00 in
Snow Depth Not available.
UV 0 out of 12
Pollen 8.80 out of 12
Air Quality Not available.
Flu Activity Not available.
METAR KMNE 301035Z AUTO 00000KT 10SM SCT075 OVC085 23/17 A2991 RMK AO2

More Conditions Fewer Conditions

10-Day Weather Forecast

Almanac

Astronomy

Sep. 30, 2014 Rise Set
Actual Time 7:06 AM CDT 6:58 PM CDT
Civil Twilight 6:41 AM CDT 7:23 PM CDT
Nautical Twilight 6:13 AM CDT 7:51 PM CDT
Astronomical Twilight 5:44 AM CDT 8:20 PM CDT
Moon 12:59 PM CDT 11:44 PM CDT
Length of Visible Light 12h 41m
Length of Day
11h 52m
Tomorrow will be 1m 58s shorter.
Waxing Crescent, 35% of the Moon is Illuminated
Today
Waxing Crescent
Oct 1
First Quarter
Oct 8
Full
Oct 15
Last Quarter
Oct 23
New

Today's Extremes

State Highs State Lows

Community

WunderPhotos

Upload Photos

1,757,609 photos uploaded!

WunderBlogs® & News

Nearby

Snow Depth

Station Depth Elevation
No new snow has been reported.

Earthquake Activity

City Distance Mag. Time & Date
No recent earthquake activity has been reported nearby.
Minimum magnitude displayed is 2.5.

Coastal Water Temperatures

Place Temperature
No Stations Reporting

Nearby Weather Stations